Terminal Aerodrome Forecast
Issued by NWS

Home | Current Version | Previous Version | Text Only | Print | Product List | Glossary On
Versions: 1 2 3 4 5 6 7 8 9 10 11 12 13
516
FTAK31 PAJN 282340
TAFAWG
TAF
PAWG 282340Z 2900/2924 03006KT P6SM BKN050
     FM290400 VRB04KT P6SM SCT080
     FM291100 10005KT P6SM FEW200
     FM291800 09008KT P6SM BKN150
     FM292200 10008KT P6SM VCSH SCT050 OVC100
      AMD LTD TO VIS AND WIND 2906/2915=

USA.gov is the U.S. government's official web portal to all federal, state and local government web resources and services.